sensor_id;sensor_type;location;lat;lon;timestamp;pressure;altitude;pressure_sealevel;temperature;humidity
8705;BME280;4389;41.932;25.904;2022-11-12T00:00:33;101895.88;;;10.70;100.00
8705;BME280;4389;41.932;25.904;2022-11-12T00:03:00;101895.09;;;10.68;100.00
8705;BME280;4389;41.932;25.904;2022-11-12T00:05:27;101890.78;;;10.67;100.00
8705;BME280;4389;41.932;25.904;2022-11-12T00:07:54;101897.56;;;10.71;100.00
8705;BME280;4389;41.932;25.904;2022-11-12T00:10:22;101889.72;;;10.70;100.00
8705;BME280;4389;41.932;25.904;2022-11-12T00:12:49;101889.72;;;10.70;100.00
8705;BME280;4389;41.932;25.904;2022-11-12T00:15:16;101896.72;;;10.71;100.00
8705;BME280;4389;41.932;25.904;2022-11-12T00:17:44;101894.84;;;10.73;100.00
8705;BME280;4389;41.932;25.904;2022-11-12T00:20:11;101904.78;;;10.69;100.00
8705;BME280;4389;41.932;25.904;2022-11-12T00:22:38;101902.25;;;10.80;100.00
8705;BME280;4389;41.932;25.904;2022-11-12T00:25:06;101898.63;;;10.81;100.00
8705;BME280;4389;41.932;25.904;2022-11-12T00:27:34;101897.34;;;10.74;100.00
8705;BME280;4389;41.932;25.904;2022-11-12T00:30:01;101884.13;;;10.74;100.00
8705;BME280;4389;41.932;25.904;2022-11-12T00:32:28;101885.28;;;10.70;100.00
8705;BME280;4389;41.932;25.904;2022-11-12T00:34:56;101881.34;;;10.63;100.00
8705;BME280;4389;41.932;25.904;2022-11-12T00:37:23;101878.50;;;10.66;100.00
8705;BME280;4389;41.932;25.904;2022-11-12T00:39:49;101887.16;;;10.68;100.00
8705;BME280;4389;41.932;25.904;2022-11-12T00:42:16;101897.00;;;10.66;100.00
8705;BME280;4389;41.932;25.904;2022-11-12T00:44:43;101895.31;;;10.65;100.00
8705;BME280;4389;41.932;25.904;2022-11-12T00:47:10;101890.78;;;10.67;100.00
8705;BME280;4389;41.932;25.904;2022-11-12T00:49:37;101895.00;;;10.57;100.00
8705;BME280;4389;41.932;25.904;2022-11-12T00:52:05;101896.69;;;10.58;100.00
8705;BME280;4389;41.932;25.904;2022-11-12T00:54:32;101889.69;;;10.57;100.00
8705;BME280;4389;41.932;25.904;2022-11-12T00:56:59;101896.28;;;10.64;100.00
8705;BME280;4389;41.932;25.904;2022-11-12T00:59:28;101888.66;;;10.60;100.00
8705;BME280;4389;41.932;25.904;2022-11-12T01:01:55;101881.00;;;10.55;100.00
8705;BME280;4389;41.932;25.904;2022-11-12T01:04:23;101894.13;;;10.57;100.00
8705;BME280;4389;41.932;25.904;2022-11-12T01:06:50;101887.22;;;10.54;100.00
8705;BME280;4389;41.932;25.904;2022-11-12T01:09:18;101886.50;;;10.52;100.00
8705;BME280;4389;41.932;25.904;2022-11-12T01:11:44;101883.66;;;10.55;100.00
8705;BME280;4389;41.932;25.904;2022-11-12T01:14:12;101888.41;;;10.50;100.00
8705;BME280;4389;41.932;25.904;2022-11-12T01:16:40;101884.19;;;10.60;100.00
8705;BME280;4389;41.932;25.904;2022-11-12T01:19:09;101893.28;;;10.56;100.00
8705;BME280;4389;41.932;25.904;2022-11-12T01:21:38;101892.53;;;10.54;100.00
8705;BME280;4389;41.932;25.904;2022-11-12T01:24:07;101889.47;;;10.60;100.00
8705;BME280;4389;41.932;25.904;2022-11-12T01:26:35;101886.50;;;10.52;100.00
8705;BME280;4389;41.932;25.904;2022-11-12T01:29:03;101887.78;;;10.59;100.00
8705;BME280;4389;41.932;25.904;2022-11-12T01:31:32;101882.16;;;10.51;100.00
8705;BME280;4389;41.932;25.904;2022-11-12T01:34:01;101879.72;;;10.48;100.00
8705;BME280;4389;41.932;25.904;2022-11-12T01:36:31;101888.78;;;10.44;100.00
8705;BME280;4389;41.932;25.904;2022-11-12T01:39:00;101880.47;;;10.50;100.00
8705;BME280;4389;41.932;25.904;2022-11-12T01:41:28;101894.09;;;10.44;100.00
8705;BME280;4389;41.932;25.904;2022-11-12T01:44:17;101899.59;;;10.41;100.00
8705;BME280;4389;41.932;25.904;2022-11-12T01:46:53;101902.97;;;10.43;100.00
8705;BME280;4389;41.932;25.904;2022-11-12T01:49:27;101902.75;;;10.46;100.00
8705;BME280;4389;41.932;25.904;2022-11-12T01:51:56;101906.56;;;10.42;100.00
8705;BME280;4389;41.932;25.904;2022-11-12T01:54:25;101905.88;;;10.53;100.00
8705;BME280;4389;41.932;25.904;2022-11-12T01:56:55;101907.47;;;10.55;100.00
8705;BME280;4389;41.932;25.904;2022-11-12T01:59:28;101905.69;;;10.68;100.00
8705;BME280;4389;41.932;25.904;2022-11-12T02:01:57;101912.91;;;10.66;100.00
8705;BME280;4389;41.932;25.904;2022-11-12T02:04:25;101908.78;;;10.62;100.00
8705;BME280;4389;41.932;25.904;2022-11-12T02:06:53;101914.59;;;10.67;100.00
8705;BME280;4389;41.932;25.904;2022-11-12T02:09:22;101917.44;;;10.64;100.00
8705;BME280;4389;41.932;25.904;2022-11-12T02:11:49;101917.25;;;10.67;100.00
8705;BME280;4389;41.932;25.904;2022-11-12T02:14:16;101915.94;;;10.60;100.00
8705;BME280;4389;41.932;25.904;2022-11-12T02:16:44;101911.91;;;10.55;100.00
8705;BME280;4389;41.932;25.904;2022-11-12T02:19:13;101918.00;;;10.43;100.00
8705;BME280;4389;41.932;25.904;2022-11-12T02:21:42;101922.06;;;10.48;100.00
8705;BME280;4389;41.932;25.904;2022-11-12T02:24:33;101909.28;;;10.28;100.00
8705;BME280;4389;41.932;25.904;2022-11-12T02:27:03;101916.22;;;10.43;100.00
8705;BME280;4389;41.932;25.904;2022-11-12T02:29:30;101924.94;;;10.31;100.00
8705;BME280;4389;41.932;25.904;2022-11-12T02:31:57;101922.59;;;10.27;100.00
8705;BME280;4389;41.932;25.904;2022-11-12T02:34:24;101918.72;;;10.18;100.00
8705;BME280;4389;41.932;25.904;2022-11-12T02:36:52;101924.88;;;10.19;100.00
8705;BME280;4389;41.932;25.904;2022-11-12T02:39:19;101915.34;;;10.16;100.00
8705;BME280;4389;41.932;25.904;2022-11-12T02:41:46;101918.94;;;10.15;100.00
8705;BME280;4389;41.932;25.904;2022-11-12T02:44:13;101917.63;;;10.08;100.00
8705;BME280;4389;41.932;25.904;2022-11-12T02:46:40;101914.41;;;10.03;100.00
8705;BME280;4389;41.932;25.904;2022-11-12T02:49:07;101915.72;;;10.10;100.00
8705;BME280;4389;41.932;25.904;2022-11-12T02:51:34;101921.88;;;9.97;100.00
8705;BME280;4389;41.932;25.904;2022-11-12T02:54:02;101919.88;;;10.00;100.00
8705;BME280;4389;41.932;25.904;2022-11-12T02:56:29;101918.91;;;10.01;100.00
8705;BME280;4389;41.932;25.904;2022-11-12T02:58:56;101919.53;;;10.06;100.00
8705;BME280;4389;41.932;25.904;2022-11-12T03:01:23;101912.88;;;9.99;100.00
8705;BME280;4389;41.932;25.904;2022-11-12T03:03:49;101914.97;;;9.94;100.00
8705;BME280;4389;41.932;25.904;2022-11-12T03:06:16;101911.38;;;9.95;100.00
8705;BME280;4389;41.932;25.904;2022-11-12T03:08:43;101914.78;;;9.83;100.00
8705;BME280;4389;41.932;25.904;2022-11-12T03:11:14;101911.97;;;9.86;100.00
8705;BME280;4389;41.932;25.904;2022-11-12T03:13:41;101924.44;;;9.84;100.00
8705;BME280;4389;41.932;25.904;2022-11-12T03:16:08;101927.72;;;9.88;100.00
8705;BME280;4389;41.932;25.904;2022-11-12T03:18:35;101922.16;;;9.78;100.00
8705;BME280;4389;41.932;25.904;2022-11-12T03:21:03;101921.59;;;9.73;100.00
8705;BME280;4389;41.932;25.904;2022-11-12T03:23:30;101933.28;;;9.69;100.00
8705;BME280;4389;41.932;25.904;2022-11-12T03:25:57;101920.28;;;9.66;100.00
8705;BME280;4389;41.932;25.904;2022-11-12T03:28:28;101933.41;;;9.68;100.00
8705;BME280;4389;41.932;25.904;2022-11-12T03:30:56;101930.84;;;9.66;100.00
8705;BME280;4389;41.932;25.904;2022-11-12T03:33:24;101931.03;;;9.63;100.00
8705;BME280;4389;41.932;25.904;2022-11-12T03:35:51;101933.47;;;9.66;100.00
8705;BME280;4389;41.932;25.904;2022-11-12T03:38:17;101937.00;;;9.67;100.00
8705;BME280;4389;41.932;25.904;2022-11-12T03:40:44;101926.78;;;9.61;100.00
8705;BME280;4389;41.932;25.904;2022-11-12T03:43:11;101922.53;;;9.58;100.00
8705;BME280;4389;41.932;25.904;2022-11-12T03:45:39;101926.13;;;9.57;100.00
8705;BME280;4389;41.932;25.904;2022-11-12T03:48:06;101926.41;;;9.53;100.00
8705;BME280;4389;41.932;25.904;2022-11-12T03:50:33;101931.41;;;9.43;100.00
8705;BME280;4389;41.932;25.904;2022-11-12T03:53:00;101928.03;;;9.55;100.00
8705;BME280;4389;41.932;25.904;2022-11-12T03:55:28;101926.50;;;9.51;100.00
8705;BME280;4389;41.932;25.904;2022-11-12T03:57:56;101929.34;;;9.48;100.00
8705;BME280;4389;41.932;25.904;2022-11-12T04:00:24;101922.09;;;9.52;100.00
8705;BME280;4389;41.932;25.904;2022-11-12T04:02:53;101930.91;;;9.51;100.00
8705;BME280;4389;41.932;25.904;2022-11-12T04:05:20;101925.84;;;9.48;100.00
8705;BME280;4389;41.932;25.904;2022-11-12T04:08:06;101923.84;;;9.37;100.00
8705;BME280;4389;41.932;25.904;2022-11-12T04:10:52;101934.59;;;9.34;100.00
8705;BME280;4389;41.932;25.904;2022-11-12T04:13:19;101925.06;;;9.32;100.00
8705;BME280;4389;41.932;25.904;2022-11-12T04:15:59;101914.97;;;9.24;100.00
8705;BME280;4389;41.932;25.904;2022-11-12T04:18:47;101922.88;;;9.24;100.00
8705;BME280;4389;41.932;25.904;2022-11-12T04:21:36;101917.44;;;9.27;100.00
8705;BME280;4389;41.932;25.904;2022-11-12T04:24:25;101910.63;;;9.23;100.00
8705;BME280;4389;41.932;25.904;2022-11-12T04:27:07;101914.28;;;9.21;100.00
8705;BME280;4389;41.932;25.904;2022-11-12T04:29:34;101905.91;;;9.14;100.00
8705;BME280;4389;41.932;25.904;2022-11-12T04:32:19;101903.25;;;9.14;100.00
8705;BME280;4389;41.932;25.904;2022-11-12T04:34:47;101913.03;;;9.12;100.00
8705;BME280;4389;41.932;25.904;2022-11-12T04:37:14;101912.00;;;9.15;100.00
8705;BME280;4389;41.932;25.904;2022-11-12T04:39:41;101907.59;;;9.15;100.00
8705;BME280;4389;41.932;25.904;2022-11-12T04:42:08;101903.16;;;9.16;100.00
8705;BME280;4389;41.932;25.904;2022-11-12T04:44:53;101915.25;;;9.20;100.00
8705;BME280;4389;41.932;25.904;2022-11-12T04:47:30;101915.25;;;9.20;100.00
8705;BME280;4389;41.932;25.904;2022-11-12T04:49:59;101924.03;;;9.20;100.00
8705;BME280;4389;41.932;25.904;2022-11-12T04:52:27;101928.34;;;9.21;100.00
8705;BME280;4389;41.932;25.904;2022-11-12T04:54:54;101923.81;;;9.23;100.00
8705;BME280;4389;41.932;25.904;2022-11-12T04:57:21;101928.16;;;9.24;100.00
8705;BME280;4389;41.932;25.904;2022-11-12T04:59:48;101926.47;;;9.23;100.00
8705;BME280;4389;41.932;25.904;2022-11-12T05:02:15;101916.75;;;9.24;100.00
8705;BME280;4389;41.932;25.904;2022-11-12T05:04:43;101913.25;;;9.23;100.00
8705;BME280;4389;41.932;25.904;2022-11-12T05:07:11;101917.88;;;9.20;100.00
8705;BME280;4389;41.932;25.904;2022-11-12T05:09:38;101917.97;;;9.18;100.00
8705;BME280;4389;41.932;25.904;2022-11-12T05:12:06;101918.16;;;9.15;100.00
8705;BME280;4389;41.932;25.904;2022-11-12T05:14:32;101919.84;;;9.16;100.00
8705;BME280;4389;41.932;25.904;2022-11-12T05:16:59;101917.59;;;9.24;100.00
8705;BME280;4389;41.932;25.904;2022-11-12T05:19:26;101921.38;;;9.20;100.00
8705;BME280;4389;41.932;25.904;2022-11-12T05:21:53;101919.66;;;9.19;100.00
8705;BME280;4389;41.932;25.904;2022-11-12T05:24:39;101918.53;;;9.23;100.00
8705;BME280;4389;41.932;25.904;2022-11-12T05:27:08;101919.28;;;9.25;100.00
8705;BME280;4389;41.932;25.904;2022-11-12T05:29:35;101917.97;;;9.18;100.00
8705;BME280;4389;41.932;25.904;2022-11-12T05:32:03;101912.69;;;9.18;100.00
8705;BME280;4389;41.932;25.904;2022-11-12T05:34:30;101920.03;;;9.13;100.00
8705;BME280;4389;41.932;25.904;2022-11-12T05:36:57;101919.84;;;9.16;100.00
8705;BME280;4389;41.932;25.904;2022-11-12T05:39:24;101920.03;;;9.13;100.00
8705;BME280;4389;41.932;25.904;2022-11-12T05:41:52;101929.31;;;9.20;100.00
8705;BME280;4389;41.932;25.904;2022-11-12T05:44:20;101930.34;;;9.18;100.00
8705;BME280;4389;41.932;25.904;2022-11-12T05:46:46;101926.66;;;9.20;100.00
8705;BME280;4389;41.932;25.904;2022-11-12T05:49:15;101933.28;;;9.27;100.00
8705;BME280;4389;41.932;25.904;2022-11-12T05:51:42;101936.00;;;9.26;100.00
8705;BME280;4389;41.932;25.904;2022-11-12T05:54:09;101939.59;;;9.25;100.00
8705;BME280;4389;41.932;25.904;2022-11-12T05:56:37;101930.81;;;9.24;100.00
8705;BME280;4389;41.932;25.904;2022-11-12T05:59:06;101946.66;;;9.24;100.00
8705;BME280;4389;41.932;25.904;2022-11-12T06:01:34;101956.47;;;9.22;100.00
8705;BME280;4389;41.932;25.904;2022-11-12T06:04:08;101970.06;;;9.30;100.00
8705;BME280;4389;41.932;25.904;2022-11-12T06:06:35;101968.16;;;9.32;100.00
8705;BME280;4389;41.932;25.904;2022-11-12T06:09:02;101971.47;;;9.36;100.00
8705;BME280;4389;41.932;25.904;2022-11-12T06:11:29;101975.94;;;9.35;100.00
8705;BME280;4389;41.932;25.904;2022-11-12T06:13:56;101979.03;;;9.42;100.00
8705;BME280;4389;41.932;25.904;2022-11-12T06:16:24;101979.22;;;9.39;100.00
8705;BME280;4389;41.932;25.904;2022-11-12T06:18:51;101986.13;;;9.41;100.00
8705;BME280;4389;41.932;25.904;2022-11-12T06:21:18;101987.34;;;9.50;100.00
8705;BME280;4389;41.932;25.904;2022-11-12T06:23:48;101996.78;;;9.40;100.00
8705;BME280;4389;41.932;25.904;2022-11-12T06:26:17;101996.78;;;9.40;100.00
8705;BME280;4389;41.932;25.904;2022-11-12T06:28:44;102005.53;;;9.40;100.00
8705;BME280;4389;41.932;25.904;2022-11-12T06:31:11;102005.53;;;9.40;100.00
8705;BME280;4389;41.932;25.904;2022-11-12T06:33:40;101998.38;;;9.42;100.00
8705;BME280;4389;41.932;25.904;2022-11-12T06:36:09;102006.13;;;9.45;100.00
8705;BME280;4389;41.932;25.904;2022-11-12T06:38:37;102003.56;;;9.44;100.00
8705;BME280;4389;41.932;25.904;2022-11-12T06:41:07;102012.53;;;9.41;100.00
8705;BME280;4389;41.932;25.904;2022-11-12T06:43:34;102005.72;;;9.37;100.00
8705;BME280;4389;41.932;25.904;2022-11-12T06:46:03;102000.44;;;9.37;100.00
8705;BME280;4389;41.932;25.904;2022-11-12T06:48:30;101997.81;;;9.37;100.00
8705;BME280;4389;41.932;25.904;2022-11-12T06:51:05;101989.53;;;9.43;100.00
8705;BME280;4389;41.932;25.904;2022-11-12T06:53:32;101995.56;;;9.45;100.00
8705;BME280;4389;41.932;25.904;2022-11-12T06:56:02;102002.72;;;9.43;100.00
8705;BME280;4389;41.932;25.904;2022-11-12T06:58:30;102009.50;;;9.47;100.00
8705;BME280;4389;41.932;25.904;2022-11-12T07:01:03;102010.66;;;9.43;100.00
8705;BME280;4389;41.932;25.904;2022-11-12T07:03:30;102021.81;;;9.48;100.00
8705;BME280;4389;41.932;25.904;2022-11-12T07:06:02;102030.47;;;9.50;100.00
8705;BME280;4389;41.932;25.904;2022-11-12T07:08:29;102023.50;;;9.49;100.00
8705;BME280;4389;41.932;25.904;2022-11-12T07:10:57;102023.13;;;9.55;100.00
8705;BME280;4389;41.932;25.904;2022-11-12T07:13:24;102025.38;;;9.61;100.00
8705;BME280;4389;41.932;25.904;2022-11-12T07:15:51;102029.94;;;9.59;100.00
8705;BME280;4389;41.932;25.904;2022-11-12T07:18:17;102017.84;;;9.69;100.00
8705;BME280;4389;41.932;25.904;2022-11-12T07:20:44;102024.09;;;9.68;100.00
8705;BME280;4389;41.932;25.904;2022-11-12T07:23:12;102020.91;;;9.77;100.00
8705;BME280;4389;41.932;25.904;2022-11-12T07:25:39;102022.22;;;9.70;100.00
8705;BME280;4389;41.932;25.904;2022-11-12T07:28:07;102016.94;;;9.70;100.00
8705;BME280;4389;41.932;25.904;2022-11-12T07:30:34;102018.63;;;9.71;100.00
8705;BME280;4389;41.932;25.904;2022-11-12T07:33:00;102021.56;;;9.67;100.00
8705;BME280;4389;41.932;25.904;2022-11-12T07:35:27;102024.88;;;9.70;100.00
8705;BME280;4389;41.932;25.904;2022-11-12T07:37:54;102028.41;;;9.69;100.00
8705;BME280;4389;41.932;25.904;2022-11-12T07:40:22;102020.31;;;9.72;100.00
8705;BME280;4389;41.932;25.904;2022-11-12T07:42:49;102019.97;;;9.78;100.00
8705;BME280;4389;41.932;25.904;2022-11-12T07:45:16;102014.09;;;9.73;100.00
8705;BME280;4389;41.932;25.904;2022-11-12T07:47:43;102019.00;;;9.79;100.00
8705;BME280;4389;41.932;25.904;2022-11-12T07:50:10;102023.72;;;9.74;100.00
8705;BME280;4389;41.932;25.904;2022-11-12T07:52:36;102030.34;;;9.81;100.00
8705;BME280;4389;41.932;25.904;2022-11-12T07:55:04;102032.22;;;9.79;100.00
8705;BME280;4389;41.932;25.904;2022-11-12T07:57:33;102032.03;;;9.82;100.00
8705;BME280;4389;41.932;25.904;2022-11-12T08:00:00;102019.97;;;9.92;100.00
8705;BME280;4389;41.932;25.904;2022-11-12T08:02:28;102021.81;;;9.76;100.00
8705;BME280;4389;41.932;25.904;2022-11-12T08:04:55;102033.53;;;9.72;100.00
8705;BME280;4389;41.932;25.904;2022-11-12T08:07:22;102045.09;;;9.85;100.00
8705;BME280;4389;41.932;25.904;2022-11-12T08:09:49;102045.63;;;9.90;100.00
8705;BME280;4389;41.932;25.904;2022-11-12T08:12:16;102044.22;;;9.85;100.00
8705;BME280;4389;41.932;25.904;2022-11-12T08:14:44;102045.63;;;9.90;100.00
8705;BME280;4389;41.932;25.904;2022-11-12T08:17:11;102042.53;;;9.84;100.00
8705;BME280;4389;41.932;25.904;2022-11-12T08:19:38;102058.09;;;9.88;100.00
8705;BME280;4389;41.932;25.904;2022-11-12T08:22:05;102053.53;;;9.76;100.00
8705;BME280;4389;41.932;25.904;2022-11-12T08:24:32;102053.19;;;9.82;100.00
8705;BME280;4389;41.932;25.904;2022-11-12T08:26:59;102053.97;;;9.84;100.00
8705;BME280;4389;41.932;25.904;2022-11-12T08:29:26;102056.59;;;9.84;100.00
8705;BME280;4389;41.932;25.904;2022-11-12T08:31:54;102063.22;;;9.91;100.00
8705;BME280;4389;41.932;25.904;2022-11-12T08:34:21;102058.75;;;9.92;100.00
8705;BME280;4389;41.932;25.904;2022-11-12T08:36:47;102071.50;;;9.85;100.00
8705;BME280;4389;41.932;25.904;2022-11-12T08:39:14;102068.97;;;9.84;100.00
8705;BME280;4389;41.932;25.904;2022-11-12T08:41:41;102065.84;;;9.77;100.00
8705;BME280;4389;41.932;25.904;2022-11-12T08:44:08;102074.00;;;9.73;100.00
8705;BME280;4389;41.932;25.904;2022-11-12T08:46:35;102075.06;;;9.70;100.00
8705;BME280;4389;41.932;25.904;2022-11-12T08:49:06;102065.81;;;9.63;100.00
8705;BME280;4389;41.932;25.904;2022-11-12T08:51:33;102072.00;;;9.62;100.00
8705;BME280;4389;41.932;25.904;2022-11-12T08:54:00;102070.53;;;9.72;100.00
8705;BME280;4389;41.932;25.904;2022-11-12T08:56:27;102080.53;;;9.67;100.00
8705;BME280;4389;41.932;25.904;2022-11-12T08:58:54;102080.38;;;9.70;100.00
8705;BME280;4389;41.932;25.904;2022-11-12T09:01:21;102086.47;;;9.71;100.00
8705;BME280;4389;41.932;25.904;2022-11-12T09:03:48;102082.72;;;9.75;100.00
8705;BME280;4389;41.932;25.904;2022-11-12T09:06:16;102086.03;;;9.78;100.00
8705;BME280;4389;41.932;25.904;2022-11-12T09:08:43;102075.34;;;9.80;100.00
8705;BME280;4389;41.932;25.904;2022-11-12T09:11:10;102075.81;;;9.72;100.00
8705;BME280;4389;41.932;25.904;2022-11-12T09:13:37;102079.81;;;9.79;100.00
8705;BME280;4389;41.932;25.904;2022-11-12T09:16:06;102077.31;;;9.76;100.00
8705;BME280;4389;41.932;25.904;2022-11-12T09:18:35;102077.53;;;9.73;100.00
8705;BME280;4389;41.932;25.904;2022-11-12T09:21:04;102074.69;;;9.76;100.00
8705;BME280;4389;41.932;25.904;2022-11-12T09:23:34;102076.66;;;9.73;100.00
8705;BME280;4389;41.932;25.904;2022-11-12T09:26:01;102074.53;;;9.79;100.00
8705;BME280;4389;41.932;25.904;2022-11-12T09:28:28;102077.34;;;9.90;100.00
8705;BME280;4389;41.932;25.904;2022-11-12T09:30:55;102071.41;;;10.01;100.00
8705;BME280;4389;41.932;25.904;2022-11-12T09:33:23;102073.41;;;9.97;100.00
8705;BME280;4389;41.932;25.904;2022-11-12T09:35:51;102067.59;;;10.06;100.00
8705;BME280;4389;41.932;25.904;2022-11-12T09:38:19;102064.00;;;10.07;100.00
8705;BME280;4389;41.932;25.904;2022-11-12T09:40:58;102064.19;;;10.18;100.00
8705;BME280;4389;41.932;25.904;2022-11-12T09:43:29;102053.06;;;10.13;100.00
8705;BME280;4389;41.932;25.904;2022-11-12T09:46:01;102058.53;;;10.24;100.00
8705;BME280;4389;41.932;25.904;2022-11-12T09:48:34;102062.31;;;10.34;100.00
8705;BME280;4389;41.932;25.904;2022-11-12T09:51:04;102053.50;;;10.48;100.00
8705;BME280;4389;41.932;25.904;2022-11-12T09:53:35;102049.25;;;10.45;100.00
8705;BME280;4389;41.932;25.904;2022-11-12T09:56:10;102058.56;;;10.65;100.00
8705;BME280;4389;41.932;25.904;2022-11-12T09:58:38;102052.53;;;10.63;100.00
8705;BME280;4389;41.932;25.904;2022-11-12T10:01:12;102054.63;;;10.58;100.00
8705;BME280;4389;41.932;25.904;2022-11-12T10:03:45;102040.69;;;10.68;100.00
8705;BME280;4389;41.932;25.904;2022-11-12T10:06:15;102038.81;;;10.70;100.00
8705;BME280;4389;41.932;25.904;2022-11-12T10:08:49;102040.69;;;10.68;100.00
8705;BME280;4389;41.932;25.904;2022-11-12T10:11:41;102036.06;;;10.72;100.00
8705;BME280;4389;41.932;25.904;2022-11-12T10:14:43;102031.06;;;10.94;100.00
8705;BME280;4389;41.932;25.904;2022-11-12T10:17:18;102029.63;;;11.02;100.00
8705;BME280;4389;41.932;25.904;2022-11-12T10:19:58;102043.22;;;10.84;100.00
8705;BME280;4389;41.932;25.904;2022-11-12T10:22:43;102031.94;;;10.94;100.00
8705;BME280;4389;41.932;25.904;2022-11-12T10:25:15;102033.63;;;10.95;100.00
8705;BME280;4389;41.932;25.904;2022-11-12T10:27:45;102025.53;;;10.84;100.00
8705;BME280;4389;41.932;25.904;2022-11-12T10:30:14;102027.25;;;10.85;100.00
8705;BME280;4389;41.932;25.904;2022-11-12T10:32:43;102017.47;;;10.86;100.00
8705;BME280;4389;41.932;25.904;2022-11-12T10:35:13;102028.03;;;10.73;100.00
8705;BME280;4389;41.932;25.904;2022-11-12T10:37:45;102013.44;;;10.80;100.00
8705;BME280;4389;41.932;25.904;2022-11-12T10:40:30;102008.53;;;10.74;100.00
8705;BME280;4389;41.932;25.904;2022-11-12T10:43:00;102008.28;;;10.65;100.00
8705;BME280;4389;41.932;25.904;2022-11-12T10:45:28;102010.06;;;10.78;100.00
8705;BME280;4389;41.932;25.904;2022-11-12T10:47:55;102011.09;;;10.76;100.00
8705;BME280;4389;41.932;25.904;2022-11-12T10:50:24;102012.25;;;10.98;100.00
8705;BME280;4389;41.932;25.904;2022-11-12T10:52:56;102019.78;;;11.04;100.00
8705;BME280;4389;41.932;25.904;2022-11-12T10:55:24;102025.88;;;10.92;100.00
8705;BME280;4389;41.932;25.904;2022-11-12T10:58:17;102010.06;;;10.78;100.00
8705;BME280;4389;41.932;25.904;2022-11-12T11:00:52;102017.59;;;10.84;100.00
8705;BME280;4389;41.932;25.904;2022-11-12T11:03:21;102011.13;;;10.88;100.00
8705;BME280;4389;41.932;25.904;2022-11-12T11:05:51;102008.19;;;10.66;100.00
8705;BME280;4389;41.932;25.904;2022-11-12T11:08:35;102006.72;;;10.62;100.00
8705;BME280;4389;41.932;25.904;2022-11-12T11:11:24;102007.34;;;10.66;100.00
8705;BME280;4389;41.932;25.904;2022-11-12T11:14:23;102001.44;;;10.48;100.00
8705;BME280;4389;41.932;25.904;2022-11-12T11:16:52;102018.63;;;10.55;100.00
8705;BME280;4389;41.932;25.904;2022-11-12T11:19:19;102012.84;;;10.49;100.00
8705;BME280;4389;41.932;25.904;2022-11-12T11:21:57;102011.44;;;10.57;100.00
8705;BME280;4389;41.932;25.904;2022-11-12T11:24:34;102007.63;;;10.61;100.00
8705;BME280;4389;41.932;25.904;2022-11-12T11:27:06;102011.63;;;10.54;100.00
8705;BME280;4389;41.932;25.904;2022-11-12T11:29:47;102020.59;;;10.66;100.00
8705;BME280;4389;41.932;25.904;2022-11-12T11:32:28;102011.03;;;10.63;100.00
8705;BME280;4389;41.932;25.904;2022-11-12T11:35:10;102007.22;;;10.67;100.00
8705;BME280;4389;41.932;25.904;2022-11-12T11:37:52;102007.78;;;10.72;100.00
8705;BME280;4389;41.932;25.904;2022-11-12T11:40:26;102008.50;;;10.62;100.00
8705;BME280;4389;41.932;25.904;2022-11-12T11:43:07;102012.75;;;10.64;100.00
8705;BME280;4389;41.932;25.904;2022-11-12T11:45:52;102008.75;;;10.71;100.00
8705;BME280;4389;41.932;25.904;2022-11-12T11:48:25;102005.81;;;10.76;100.00
8705;BME280;4389;41.932;25.904;2022-11-12T11:51:01;101997.50;;;10.68;100.00
8705;BME280;4389;41.932;25.904;2022-11-12T11:53:36;102003.84;;;10.65;100.00
8705;BME280;4389;41.932;25.904;2022-11-12T11:56:12;102007.63;;;10.61;100.00
8705;BME280;4389;41.932;25.904;2022-11-12T11:58:52;102000.25;;;10.66;100.00
8705;BME280;4389;41.932;25.904;2022-11-12T12:01:27;102019.94;;;10.62;100.00
8705;BME280;4389;41.932;25.904;2022-11-12T12:04:16;102015.09;;;10.69;100.00
8705;BME280;4389;41.932;25.904;2022-11-12T12:07:06;102008.75;;;10.71;100.00
8705;BME280;4389;41.932;25.904;2022-11-12T12:09:41;102000.34;;;10.65;100.00
8705;BME280;4389;41.932;25.904;2022-11-12T12:12:17;102005.53;;;10.66;100.00
8705;BME280;4389;41.932;25.904;2022-11-12T12:14:55;101992.34;;;10.52;100.00
8705;BME280;4389;41.932;25.904;2022-11-12T12:17:38;101977.94;;;10.70;100.00
8705;BME280;4389;41.932;25.904;2022-11-12T12:20:16;101978.41;;;10.63;100.00
8705;BME280;4389;41.932;25.904;2022-11-12T12:22:48;101966.75;;;10.53;100.00
8705;BME280;4389;41.932;25.904;2022-11-12T12:25:20;101952.34;;;10.57;100.00
8705;BME280;4389;41.932;25.904;2022-11-12T12:27:53;101952.50;;;10.41;100.00
8705;BME280;4389;41.932;25.904;2022-11-12T12:30:25;101960.97;;;10.46;100.00
8705;BME280;4389;41.932;25.904;2022-11-12T12:32:56;101958.34;;;10.46;100.00
8705;BME280;4389;41.932;25.904;2022-11-12T12:35:29;101957.00;;;10.53;100.00
8705;BME280;4389;41.932;25.904;2022-11-12T12:38:04;101955.50;;;10.49;100.00
8705;BME280;4389;41.932;25.904;2022-11-12T12:40:34;101960.78;;;10.49;100.00
8705;BME280;4389;41.932;25.904;2022-11-12T12:43:11;101961.94;;;10.45;100.00
8705;BME280;4389;41.932;25.904;2022-11-12T12:45:44;101954.91;;;10.58;100.00
8705;BME280;4389;41.932;25.904;2022-11-12T12:48:16;101957.50;;;10.72;100.00
8705;BME280;4389;41.932;25.904;2022-11-12T12:50:45;101964.88;;;10.67;100.00
8705;BME280;4389;41.932;25.904;2022-11-12T12:53:16;101957.50;;;10.72;100.00
8705;BME280;4389;41.932;25.904;2022-11-12T12:55:45;101940.59;;;10.87;100.00
8705;BME280;4389;41.932;25.904;2022-11-12T12:58:25;101953.72;;;10.76;100.00
8705;BME280;4389;41.932;25.904;2022-11-12T13:00:58;101944.75;;;10.65;100.00
8705;BME280;4389;41.932;25.904;2022-11-12T13:03:49;101946.69;;;10.75;100.00
8705;BME280;4389;41.932;25.904;2022-11-12T13:06:22;101949.13;;;10.66;100.00
8705;BME280;4389;41.932;25.904;2022-11-12T13:08:59;101947.69;;;10.60;100.00
8705;BME280;4389;41.932;25.904;2022-11-12T13:11:47;101945.00;;;10.48;100.00